createdAt,value
2016-06-12T00:00:45.342Z,80.79
2016-06-12T00:01:45.329Z,80.85
2016-06-12T00:02:45.332Z,81.37
2016-06-12T00:03:45.304Z,81.72
2016-06-12T00:04:45.307Z,81.52
2016-06-12T00:05:45.279Z,81.81
2016-06-12T00:06:45.111Z,81.72
2016-06-12T00:07:45.255Z,81.62
2016-06-12T00:08:45.267Z,81.43
2016-06-12T00:09:45.153Z,81.72
2016-06-12T00:10:45.319Z,82.39
2016-06-12T00:11:45.344Z,82.1
2016-06-12T00:12:45.369Z,82.01
2016-06-12T00:13:45.379Z,81.62
2016-06-12T00:14:45.379Z,81.43
2016-06-12T00:15:45.382Z,81.52
2016-06-12T00:16:45.366Z,81.04
2016-06-12T00:17:45.368Z,80.94
2016-06-12T00:18:45.363Z,82.29
2016-06-12T00:19:45.355Z,82.06
2016-06-12T00:20:45.801Z,81.62
2016-06-12T00:21:45.340Z,82.29
2016-06-12T00:22:45.317Z,82.16
2016-06-12T00:23:45.307Z,81.62
2016-06-12T00:24:45.297Z,82.1
2016-06-12T00:25:45.286Z,81.81
2016-06-12T00:26:45.275Z,81.91
2016-06-12T00:27:45.109Z,81.62
2016-06-12T00:28:45.253Z,81.52
2016-06-12T00:29:45.242Z,81.14
2016-06-12T00:30:45.229Z,81.33
2016-06-12T00:31:45.217Z,80.94
2016-06-12T00:32:45.205Z,80.66
2016-06-12T00:33:45.193Z,81.04
2016-06-12T00:34:45.165Z,81.24
2016-06-12T00:35:45.746Z,80.85
2016-06-12T00:36:45.141Z,81.24
2016-06-12T00:37:45.128Z,81.33
2016-06-12T00:38:45.115Z,81.72
2016-06-12T00:39:45.104Z,82.01
2016-06-12T00:40:45.090Z,81.81
2016-06-12T00:41:45.063Z,81.81
2016-06-12T00:42:45.065Z,81.04
2016-06-12T00:43:45.038Z,81.72
2016-06-12T00:44:45.025Z,81.62
2016-06-12T00:45:45.028Z,80.66
2016-06-12T00:46:45.000Z,81.24
2016-06-12T00:47:44.987Z,81.33
2016-06-12T00:48:44.974Z,80.76
2016-06-12T00:49:45.463Z,80.76
2016-06-12T00:50:45.449Z,80.46
2016-06-12T00:51:44.953Z,80.85
2016-06-12T00:52:44.908Z,80.76
2016-06-12T00:53:44.897Z,80.6
2016-06-12T00:54:44.884Z,80.31
2016-06-12T00:55:44.870Z,81.04
2016-06-12T00:56:44.859Z,81.62
2016-06-12T00:57:44.846Z,81.14
2016-06-12T00:58:44.834Z,80.94
2016-06-12T00:59:44.821Z,80.46
2016-06-12T01:00:44.808Z,80.69
2016-06-12T01:01:44.780Z,80.51
2016-06-12T01:02:44.783Z,80.02
2016-06-12T01:03:44.756Z,80.41
2016-06-12T01:04:44.758Z,80.12
2016-06-12T01:05:45.417Z,80.6
2016-06-12T01:06:44.717Z,80.94
2016-06-12T01:07:44.721Z,80.66
2016-06-12T01:08:44.692Z,80.85
2016-06-12T01:09:44.680Z,80.6
2016-06-12T01:10:44.667Z,80.31
2016-06-12T01:11:44.654Z,79.93
2016-06-12T01:12:44.642Z,79.35
2016-06-12T01:13:44.614Z,79.74
2016-06-12T01:14:44.601Z,79.74
2016-06-12T01:15:44.621Z,80.02
2016-06-12T01:16:44.592Z,80.69
2016-06-12T01:17:44.564Z,80.31
2016-06-12T01:18:44.551Z,81.09
2016-06-12T01:19:44.538Z,81.81
2016-06-12T01:20:44.526Z,81.33
2016-06-12T01:21:44.513Z,81.04
2016-06-12T01:22:44.501Z,80.79
2016-06-12T01:23:44.489Z,81.14
2016-06-12T01:24:44.460Z,81.14
2016-06-12T01:25:44.292Z,80.85
2016-06-12T01:26:44.435Z,80.37
2016-06-12T01:27:44.438Z,80.94
2016-06-12T01:28:44.410Z,81.14
2016-06-12T01:29:44.397Z,81.52
2016-06-12T01:30:44.386Z,81.14
2016-06-12T01:31:44.372Z,80.37
2016-06-12T01:32:44.203Z,80.6
2016-06-12T01:33:44.348Z,80.76
2016-06-12T01:34:44.320Z,80.12
2016-06-12T01:35:45.026Z,80.22
2016-06-12T01:36:44.294Z,80.99
2016-06-12T01:37:44.282Z,80.18
2016-06-12T01:38:44.269Z,81.33
2016-06-12T01:39:44.256Z,81.14
2016-06-12T01:40:44.245Z,80.76
2016-06-12T01:41:44.231Z,81.33
2016-06-12T01:42:44.219Z,81.43
2016-06-12T01:43:44.190Z,80.76
2016-06-12T01:44:44.194Z,80.94
2016-06-12T01:45:44.166Z,81.04
2016-06-12T01:46:43.996Z,80.37
2016-06-12T01:47:44.141Z,80.27
2016-06-12T01:48:44.128Z,80.69
2016-06-12T01:49:44.116Z,80.31
2016-06-12T01:50:43.947Z,80.51
2016-06-12T01:51:44.090Z,81.04
2016-06-12T01:52:44.078Z,80.85
2016-06-12T01:53:44.065Z,80.27
2016-06-12T01:54:44.053Z,80.94
2016-06-12T01:55:44.040Z,80.85
2016-06-12T01:56:44.012Z,81.04
2016-06-12T01:57:44.000Z,81.14
2016-06-12T01:58:44.002Z,81.33
2016-06-12T01:59:43.975Z,80.66
2016-06-12T02:00:43.962Z,80.6
2016-06-12T02:01:43.949Z,80.6
2016-06-12T02:02:43.937Z,80.12
2016-06-12T02:03:43.924Z,80.02
2016-06-12T02:04:43.912Z,80.94
2016-06-12T02:05:44.321Z,80.46
2016-06-12T02:06:43.871Z,80.37
2016-06-12T02:07:43.858Z,80.66
2016-06-12T02:08:43.846Z,80.56
2016-06-12T02:09:43.834Z,80.66
2016-06-12T02:10:43.821Z,80.56
2016-06-12T02:11:43.809Z,80.18
2016-06-12T02:12:43.796Z,81.04
2016-06-12T02:13:43.799Z,81.72
2016-06-12T02:14:43.599Z,80.94
2016-06-12T02:15:43.742Z,81.24
2016-06-12T02:16:43.745Z,81.33
2016-06-12T02:17:43.717Z,80.56
2016-06-12T02:18:43.705Z,80.85
2016-06-12T02:19:43.692Z,81.14
2016-06-12T02:20:43.695Z,81.91
2016-06-12T02:21:43.668Z,82.16
2016-06-12T02:22:43.654Z,82.2
2016-06-12T02:23:43.657Z,81.72
2016-06-12T02:24:43.644Z,81.62
2016-06-12T02:25:43.602Z,82.01
2016-06-12T02:26:43.589Z,81.24
2016-06-12T02:27:43.591Z,81.33
2016-06-12T02:28:43.564Z,81.52
2016-06-12T02:29:43.395Z,81.24
2016-06-12T02:30:43.538Z,80.76
2016-06-12T02:31:43.526Z,80.27
2016-06-12T02:32:43.358Z,80.76
2016-06-12T02:33:43.501Z,81.04
2016-06-12T02:34:43.488Z,80.76
2016-06-12T02:35:43.772Z,80.76
2016-06-12T02:36:43.463Z,80.46
2016-06-12T02:37:43.435Z,81.04
2016-06-12T02:38:43.423Z,80.94
2016-06-12T02:39:43.410Z,80.76
2016-06-12T02:40:43.412Z,80.66
2016-06-12T02:41:43.385Z,81.33
2016-06-12T02:42:43.388Z,81.33
2016-06-12T02:43:43.360Z,81.43
2016-06-12T02:44:43.347Z,80.66
2016-06-12T02:45:43.334Z,80.66
2016-06-12T02:46:43.306Z,81.33
2016-06-12T02:47:43.294Z,81.33
2016-06-12T02:48:43.281Z,81.2
2016-06-12T02:49:43.112Z,81.72
2016-06-12T02:50:43.256Z,80.91
2016-06-12T02:51:43.244Z,81.43
2016-06-12T02:52:43.230Z,81.87
2016-06-12T02:53:43.218Z,81.77
2016-06-12T02:54:43.206Z,81.68
2016-06-12T02:55:43.194Z,81.48
2016-06-12T02:56:43.164Z,81.58
2016-06-12T02:57:43.153Z,81.39
2016-06-12T02:58:43.140Z,80.91
2016-06-12T02:59:43.127Z,80.85
2016-06-12T03:00:43.115Z,80.46
2016-06-12T03:01:43.102Z,81.33
2016-06-12T03:02:43.090Z,80.62
2016-06-12T03:03:43.077Z,80.46
2016-06-12T03:04:43.050Z,80.56
2016-06-12T03:05:43.364Z,80.76
2016-06-12T03:06:42.867Z,81.77
2016-06-12T03:07:43.012Z,81.2
2016-06-12T03:08:42.999Z,81.04
2016-06-12T03:09:42.986Z,80.27
2016-06-12T03:10:42.974Z,81.62
2016-06-12T03:11:42.961Z,81.48
2016-06-12T03:12:42.949Z,81.77
2016-06-12T03:13:42.936Z,80.91
2016-06-12T03:14:42.908Z,80.91
2016-06-12T03:15:42.896Z,81.04
2016-06-12T03:16:42.883Z,80.94
2016-06-12T03:17:42.870Z,81.87
2016-06-12T03:18:42.857Z,81.87
2016-06-12T03:19:42.845Z,81.48
2016-06-12T03:20:43.286Z,81.39
2016-06-12T03:21:42.804Z,81.96
2016-06-12T03:22:42.791Z,82.26
2016-06-12T03:23:42.780Z,82.16
2016-06-12T03:24:42.767Z,82.21
2016-06-12T03:25:42.754Z,81.68
2016-06-12T03:26:42.757Z,81.68
2016-06-12T03:27:42.729Z,81.58
2016-06-12T03:28:42.716Z,82.06
2016-06-12T03:29:42.689Z,81.96
2016-06-12T03:30:42.691Z,82.26
2016-06-12T03:31:42.679Z,82.16
2016-06-12T03:32:42.495Z,82.16
2016-06-12T03:33:42.639Z,81.96
2016-06-12T03:34:42.626Z,82.26
2016-06-12T03:35:43.097Z,82.06
2016-06-12T03:36:42.601Z,81.87
2016-06-12T03:37:42.588Z,81.96
2016-06-12T03:38:42.560Z,82.35
2016-06-12T03:39:42.547Z,82.7
2016-06-12T03:40:42.535Z,82.89
2016-06-12T03:41:42.523Z,83.37
2016-06-12T03:42:42.509Z,83.37
2016-06-12T03:43:42.497Z,83.08
2016-06-12T03:44:42.325Z,82.6
2016-06-12T03:45:42.469Z,82.6
2016-06-12T03:46:42.440Z,83.37
2016-06-12T03:47:42.429Z,82.7
2016-06-12T03:48:42.416Z,82.6
2016-06-12T03:49:42.402Z,82.41
2016-06-12T03:50:42.235Z,82.21
2016-06-12T03:51:42.378Z,82.26
2016-06-12T03:52:42.366Z,81.96
2016-06-12T03:53:42.353Z,81.87
2016-06-12T03:54:42.325Z,81.58
2016-06-12T03:55:42.313Z,81.29
2016-06-12T03:56:42.299Z,81.87
2016-06-12T03:57:42.287Z,82.21
2016-06-12T03:58:42.290Z,81.93
2016-06-12T03:59:42.262Z,82.02
2016-06-12T04:00:42.250Z,82.02
2016-06-12T04:01:42.237Z,81.93
2016-06-12T04:02:42.224Z,82.02
2016-06-12T04:03:42.195Z,82.21
2016-06-12T04:04:42.184Z,81.93
2016-06-12T04:05:42.031Z,82.6
2016-06-12T04:06:42.174Z,82.79
2016-06-12T04:07:42.162Z,82.21
2016-06-12T04:08:42.118Z,82.21
2016-06-12T04:09:42.121Z,82.6
2016-06-12T04:10:42.108Z,82.21
2016-06-12T04:11:42.080Z,81.83
2016-06-12T04:12:42.067Z,82.6
2016-06-12T04:13:42.055Z,82.41
2016-06-12T04:14:42.043Z,82.89
2016-06-12T04:15:42.029Z,82.7
2016-06-12T04:16:42.018Z,82.21
2016-06-12T04:17:42.005Z,82.31
2016-06-12T04:18:41.992Z,82.02
2016-06-12T04:19:41.963Z,81.63
2016-06-12T04:20:43.014Z,82.35
2016-06-12T04:21:42.080Z,81.93
2016-06-12T04:22:41.926Z,82.31
2016-06-12T04:23:41.914Z,81.48
2016-06-12T04:24:41.885Z,82.31
2016-06-12T04:25:41.889Z,82.31
2016-06-12T04:26:41.860Z,82.7
2016-06-12T04:27:41.848Z,82.79
2016-06-12T04:28:41.835Z,82.89
2016-06-12T04:29:41.823Z,83.18
2016-06-12T04:30:41.811Z,83.47
2016-06-12T04:31:41.798Z,83.56
2016-06-12T04:32:41.769Z,82.98
2016-06-12T04:33:41.757Z,83.28
2016-06-12T04:34:41.745Z,83.37
2016-06-12T04:35:42.013Z,83.08
2016-06-12T04:36:41.907Z,82.89
2016-06-12T04:37:41.707Z,83.18
2016-06-12T04:38:41.695Z,83.18
2016-06-12T04:39:41.681Z,83.28
2016-06-12T04:40:41.653Z,84.14
2016-06-12T04:41:41.657Z,84.1
2016-06-12T04:42:41.629Z,83.56
2016-06-12T04:43:41.616Z,82.41
2016-06-12T04:44:41.604Z,82.7
2016-06-12T04:45:41.575Z,82.89
2016-06-12T04:46:41.563Z,83.08
2016-06-12T04:47:41.566Z,84.14
2016-06-12T04:48:41.538Z,84
2016-06-12T04:49:41.525Z,84.1
2016-06-12T04:50:41.372Z,83.52
2016-06-12T04:51:41.500Z,83.18
2016-06-12T04:52:41.504Z,83.18
2016-06-12T04:53:41.459Z,82.98
2016-06-12T04:54:41.462Z,82.6
2016-06-12T04:55:41.450Z,82.12
2016-06-12T04:56:41.422Z,82.21
2016-06-12T04:57:41.408Z,83.18
2016-06-12T04:58:41.397Z,83.14
2016-06-12T04:59:41.384Z,83.28
2016-06-12T05:00:41.371Z,83.04
2016-06-12T05:01:41.359Z,82.98
2016-06-12T05:02:41.346Z,82.6
2016-06-12T05:03:41.318Z,82.89
2016-06-12T05:04:41.305Z,82.6
2016-06-12T05:05:41.136Z,81.93
2016-06-12T05:06:41.140Z,82.7
2016-06-12T05:07:41.268Z,82.7
2016-06-12T05:08:41.255Z,82.41
2016-06-12T05:09:41.242Z,81.93
2016-06-12T05:10:41.215Z,82.89
2016-06-12T05:11:41.202Z,82.31
2016-06-12T05:12:41.189Z,82.98
2016-06-12T05:13:41.177Z,82.12
2016-06-12T05:14:41.164Z,82.98
2016-06-12T05:15:41.183Z,83.04
2016-06-12T05:16:41.139Z,82.75
2016-06-12T05:17:41.127Z,82.5
2016-06-12T05:18:41.098Z,82.79
2016-06-12T05:19:41.087Z,82.7
2016-06-12T05:20:41.073Z,83.08
2016-06-12T05:21:41.060Z,83.04
2016-06-12T05:22:41.049Z,82.75
2016-06-12T05:23:41.036Z,82.21
2016-06-12T05:24:41.023Z,82.5
2016-06-12T05:25:40.995Z,82.21
2016-06-12T05:26:40.982Z,82.7
2016-06-12T05:27:40.970Z,82.79
2016-06-12T05:28:40.957Z,82.89
2016-06-12T05:29:40.945Z,82.12
2016-06-12T05:30:40.932Z,82.02
2016-06-12T05:31:40.921Z,81.93
2016-06-12T05:32:40.907Z,81.68
2016-06-12T05:33:40.895Z,81.58
2016-06-12T05:34:40.866Z,81.96
2016-06-12T05:35:40.854Z,82.31
2016-06-12T05:36:41.888Z,81.83
2016-06-12T05:37:40.829Z,81.54
2016-06-12T05:38:40.817Z,82.02
2016-06-12T05:39:40.804Z,81.48
2016-06-12T05:40:40.791Z,81.48
2016-06-12T05:41:40.763Z,81.87
2016-06-12T05:42:40.750Z,81.1
2016-06-12T05:43:40.738Z,81.68
2016-06-12T05:44:40.725Z,81.2
2016-06-12T05:45:40.713Z,81.39
2016-06-12T05:46:40.700Z,81.48
2016-06-12T05:47:40.531Z,81.01
2016-06-12T05:48:40.659Z,81.39
2016-06-12T05:49:40.646Z,81.58
2016-06-12T05:50:40.634Z,81.48
2016-06-12T05:51:40.919Z,81.1
2016-06-12T05:52:40.610Z,81.29
2016-06-12T05:53:40.597Z,80.62
2016-06-12T05:54:40.584Z,80.52
2016-06-12T05:55:40.556Z,81.01
2016-06-12T05:56:40.543Z,80.43
2016-06-12T05:57:40.546Z,81.29
2016-06-12T05:58:40.519Z,81.29
2016-06-12T05:59:40.506Z,80.81
2016-06-12T06:00:40.493Z,80.62
2016-06-12T06:01:40.481Z,80.71
2016-06-12T06:02:40.468Z,80.33
2016-06-12T06:03:40.456Z,80.14
2016-06-12T06:04:40.442Z,80.56
2016-06-12T06:05:40.415Z,81.2
2016-06-12T06:06:40.839Z,80.52
2016-06-12T06:07:40.390Z,80.04
2016-06-12T06:08:40.377Z,80.27
2016-06-12T06:09:40.365Z,79.94
2016-06-12T06:10:40.352Z,80.14
2016-06-12T06:11:40.339Z,81.1
2016-06-12T06:12:40.327Z,81.01
2016-06-12T06:13:40.299Z,80.81
2016-06-12T06:14:40.130Z,80.23
2016-06-12T06:15:40.274Z,80.23
2016-06-12T06:16:40.261Z,80.62
2016-06-12T06:17:40.248Z,80.62
2016-06-12T06:18:40.236Z,80.71
2016-06-12T06:19:40.239Z,80.14
2016-06-12T06:20:40.211Z,79.27
2016-06-12T06:21:40.198Z,79.6
2016-06-12T06:22:40.170Z,80.18
2016-06-12T06:23:40.158Z,79.79
2016-06-12T06:24:40.145Z,79.79
2016-06-12T06:25:40.132Z,79.6
2016-06-12T06:26:39.965Z,79.41
2016-06-12T06:27:40.107Z,79.21
2016-06-12T06:28:40.095Z,79.31
2016-06-12T06:29:40.083Z,79.41
2016-06-12T06:30:40.055Z,79.79
2016-06-12T06:31:40.058Z,80.23
2016-06-12T06:32:40.028Z,79.69
2016-06-12T06:33:40.032Z,79.69
2016-06-12T06:34:40.004Z,79.5
2016-06-12T06:35:40.006Z,79.69
2016-06-12T06:36:40.573Z,79.98
2016-06-12T06:37:39.966Z,80.91
2016-06-12T06:38:39.954Z,80.43
2016-06-12T06:39:39.941Z,79.98
2016-06-12T06:40:39.914Z,80.27
2016-06-12T06:41:39.917Z,80.52
2016-06-12T06:42:39.903Z,80.23
2016-06-12T06:43:39.876Z,79.6
2016-06-12T06:44:39.706Z,79.41
2016-06-12T06:45:39.851Z,79.98
2016-06-12T06:46:39.838Z,80.08
2016-06-12T06:47:39.825Z,79.89
2016-06-12T06:48:39.813Z,79.5
2016-06-12T06:49:39.799Z,79.69
2016-06-12T06:50:39.788Z,79.5
2016-06-12T06:51:41.353Z,79.31
2016-06-12T06:52:39.747Z,79.98
2016-06-12T06:53:39.750Z,80.46
2016-06-12T06:54:39.737Z,80.18
2016-06-12T06:55:39.709Z,80.46
2016-06-12T06:56:39.696Z,80.46
2016-06-12T06:57:39.685Z,80.14
2016-06-12T06:58:39.672Z,80.18
2016-06-12T06:59:39.658Z,79.98
2016-06-12T07:00:39.647Z,80.08
2016-06-12T07:01:39.618Z,80.46
2016-06-12T07:02:39.606Z,80.46
2016-06-12T07:03:39.593Z,80.46
2016-06-12T07:04:39.581Z,79.98
2016-06-12T07:05:39.568Z,80.08
2016-06-12T07:06:39.743Z,79.89
2016-06-12T07:07:39.544Z,79.98
2016-06-12T07:08:39.531Z,79.98
2016-06-12T07:09:39.518Z,79.21
2016-06-12T07:10:39.505Z,80.18
2016-06-12T07:11:39.478Z,79.79
2016-06-12T07:12:39.465Z,79.41
2016-06-12T07:13:39.452Z,79.21
2016-06-12T07:14:39.439Z,79.64
2016-06-12T07:15:39.427Z,79.5
2016-06-12T07:16:39.414Z,78.83
2016-06-12T07:17:39.402Z,79.02
2016-06-12T07:18:39.374Z,79.69
2016-06-12T07:19:39.361Z,79.69
2016-06-12T07:20:39.348Z,79.21
2016-06-12T07:21:39.351Z,79.16
2016-06-12T07:22:39.323Z,78.19
2016-06-12T07:23:39.311Z,79.06
2016-06-12T07:24:39.299Z,79.21
2016-06-12T07:25:39.285Z,79.69
2016-06-12T07:26:39.274Z,79.31
2016-06-12T07:27:39.260Z,79.31
2016-06-12T07:28:39.247Z,78.92
2016-06-12T07:29:39.220Z,78.96
2016-06-12T07:30:39.207Z,78.96
2016-06-12T07:31:39.195Z,79.25
2016-06-12T07:32:39.182Z,78.29
2016-06-12T07:33:39.170Z,78.29
2016-06-12T07:34:39.157Z,78.09
2016-06-12T07:35:39.144Z,78.19
2016-06-12T07:36:39.132Z,78.19
2016-06-12T07:37:39.119Z,79.54
2016-06-12T07:38:39.107Z,79.16
2016-06-12T07:39:39.079Z,79.16
2016-06-12T07:40:39.067Z,78.58
2016-06-12T07:41:39.054Z,78.19
2016-06-12T07:42:39.041Z,78.29
2016-06-12T07:43:39.029Z,79.25
2016-06-12T07:44:39.016Z,78.77
2016-06-12T07:45:39.003Z,79.16
2016-06-12T07:46:38.991Z,78.38
2016-06-12T07:47:38.978Z,78.29
2016-06-12T07:48:38.966Z,78.96
2016-06-12T07:49:38.953Z,78.19
2016-06-12T07:50:38.768Z,77.9
2016-06-12T07:51:38.912Z,77.13
2016-06-12T07:52:38.743Z,77.26
2016-06-12T07:53:38.888Z,77.17
2016-06-12T07:54:38.875Z,77.36
2016-06-12T07:55:38.863Z,77.46
2016-06-12T07:56:38.850Z,77.55
2016-06-12T07:57:38.837Z,76.98
2016-06-12T07:58:38.825Z,76.68
2016-06-12T07:59:39.000Z,76.98
2016-06-12T08:00:38.799Z,76.59
2016-06-12T08:01:38.771Z,77.46
2016-06-12T08:02:38.760Z,77.75
2016-06-12T08:03:38.746Z,77.84
2016-06-12T08:04:38.734Z,77.94
2016-06-12T08:05:38.721Z,77.33
2016-06-12T08:06:38.708Z,77.26
2016-06-12T08:07:39.353Z,76.78
2016-06-12T08:08:38.683Z,76.68
2016-06-12T08:09:38.671Z,77.17
2016-06-12T08:10:38.659Z,77.21
2016-06-12T08:11:38.646Z,76.68
2016-06-12T08:12:38.633Z,76.82
2016-06-12T08:13:38.605Z,77.17
2016-06-12T08:14:38.608Z,76.98
2016-06-12T08:15:38.595Z,77.07
2016-06-12T08:16:38.567Z,76.1
2016-06-12T08:17:38.555Z,76.4
2016-06-12T08:18:38.542Z,76.05
2016-06-12T08:19:38.530Z,76.43
2016-06-12T08:20:38.517Z,76.3
2016-06-12T08:21:38.646Z,76.4
2016-06-12T08:22:38.571Z,76.68
2016-06-12T08:23:38.480Z,76.3
2016-06-12T08:24:38.452Z,76.2
2016-06-12T08:25:38.439Z,76.2
2016-06-12T08:26:38.427Z,75.85
2016-06-12T08:27:38.414Z,76.24
2016-06-12T08:28:38.401Z,75.67
2016-06-12T08:29:38.389Z,75.85
2016-06-12T08:30:38.376Z,75.95
2016-06-12T08:31:38.364Z,75.57
2016-06-12T08:32:38.351Z,75.47
2016-06-12T08:33:38.338Z,75.6
2016-06-12T08:34:38.326Z,74.99
2016-06-12T08:35:38.328Z,74.69
2016-06-12T08:36:38.520Z,74.51
2016-06-12T08:37:38.632Z,74.73
2016-06-12T08:38:38.276Z,75.09
2016-06-12T08:39:38.263Z,74.89
2016-06-12T08:40:38.235Z,74.89
2016-06-12T08:41:38.222Z,75.57
2016-06-12T08:42:38.211Z,75.27
2016-06-12T08:43:38.198Z,74.6
2016-06-12T08:44:38.028Z,74.02
2016-06-12T08:45:38.173Z,73.86
2016-06-12T08:46:38.159Z,73.19
2016-06-12T08:47:38.147Z,73.32
2016-06-12T08:48:38.135Z,73.58
2016-06-12T08:49:38.122Z,73.58
2016-06-12T08:50:38.110Z,74.02
2016-06-12T08:51:38.097Z,73.63
2016-06-12T08:52:38.084Z,73.63
2016-06-12T08:53:38.072Z,73.38
2016-06-12T08:54:38.045Z,74.06
2016-06-12T08:55:38.048Z,73.77
2016-06-12T08:56:38.018Z,73.28
2016-06-12T08:57:37.850Z,73.58
2016-06-12T08:58:37.994Z,73.96
2016-06-12T08:59:37.997Z,73.96
2016-06-12T09:00:37.968Z,73.58
2016-06-12T09:01:37.956Z,73.67
2016-06-12T09:02:37.944Z,73.58
2016-06-12T09:03:37.931Z,74.35
2016-06-12T09:04:37.918Z,74.16
2016-06-12T09:05:37.906Z,72.42
2016-06-12T09:06:37.737Z,72.16
2016-06-12T09:07:38.287Z,72.52
2016-06-12T09:08:37.869Z,72.8
2016-06-12T09:09:37.855Z,72.8
2016-06-12T09:10:37.828Z,72.32
2016-06-12T09:11:37.831Z,72.06
2016-06-12T09:12:37.817Z,71.97
2016-06-12T09:13:37.805Z,71.58
2016-06-12T09:14:37.794Z,72.55
2016-06-12T09:15:37.806Z,72.64
2016-06-12T09:16:37.834Z,72.64
2016-06-12T09:17:37.863Z,72.16
2016-06-12T09:18:37.891Z,71.78
2016-06-12T09:19:37.918Z,71.81
2016-06-12T09:20:37.921Z,72.64
2016-06-12T09:21:37.922Z,71.78
2016-06-12T09:22:38.096Z,72.55
2016-06-12T09:23:37.927Z,71.97
2016-06-12T09:24:37.928Z,71
2016-06-12T09:25:37.936Z,71.81
2016-06-12T09:26:37.913Z,71.48
2016-06-12T09:27:37.749Z,71.62
2016-06-12T09:28:37.742Z,71.2
2016-06-12T09:29:37.891Z,71.33
2016-06-12T09:30:37.880Z,70.75
2016-06-12T09:31:37.869Z,70.46
2016-06-12T09:32:37.859Z,70.26
2016-06-12T09:33:37.848Z,71.14
2016-06-12T09:34:37.837Z,70.36
2016-06-12T09:35:37.825Z,69.62
2016-06-12T09:36:37.814Z,69.43
2016-06-12T09:37:38.208Z,68.85
2016-06-12T09:38:37.789Z,69.24
2016-06-12T09:39:37.779Z,69.43
2016-06-12T09:40:37.751Z,69.43
2016-06-12T09:41:37.754Z,68.69
2016-06-12T09:42:37.726Z,68.66
2016-06-12T09:43:37.729Z,69.43
2016-06-12T09:44:37.702Z,69.33
2016-06-12T09:45:37.705Z,68.46
2016-06-12T09:46:37.692Z,68.21
2016-06-12T09:47:37.664Z,68.01
2016-06-12T09:48:37.652Z,67.82
2016-06-12T09:49:37.639Z,67.91
2016-06-12T09:50:37.626Z,68.21
2016-06-12T09:51:37.615Z,67.85
2016-06-12T09:52:37.570Z,68.11
2016-06-12T09:53:37.604Z,67.91
2016-06-12T09:54:37.577Z,68.21
2016-06-12T09:55:37.564Z,68.98
2016-06-12T09:56:37.566Z,68.11
2016-06-12T09:57:37.538Z,67.05
2016-06-12T09:58:37.370Z,66.78
2016-06-12T09:59:37.357Z,66.4
2016-06-12T10:00:37.501Z,66.27
2016-06-12T10:01:37.488Z,67.05
2016-06-12T10:02:37.476Z,67.33
2016-06-12T10:03:37.463Z,66.78
2016-06-12T10:04:37.451Z,66.3
2016-06-12T10:05:37.438Z,66.69
2016-06-12T10:06:37.426Z,66.88
2016-06-12T10:07:37.866Z,66.69
2016-06-12T10:08:37.400Z,66.4
2016-06-12T10:09:37.388Z,66.5
2016-06-12T10:10:37.376Z,66.3
2016-06-12T10:11:37.362Z,66.78
2016-06-12T10:12:37.351Z,66.98
2016-06-12T10:13:37.338Z,67.27
2016-06-12T10:14:37.325Z,66.4
2016-06-12T10:15:37.328Z,66.78
2016-06-12T10:16:37.300Z,66.6
2016-06-12T10:17:37.287Z,66.6
2016-06-12T10:18:37.275Z,66.69
2016-06-12T10:19:37.279Z,66.14
2016-06-12T10:20:37.250Z,66.82
2016-06-12T10:21:37.237Z,65.95
2016-06-12T10:22:37.241Z,65.85
2016-06-12T10:23:37.213Z,64.98
2016-06-12T10:24:37.200Z,64.92
2016-06-12T10:25:37.203Z,64.34
2016-06-12T10:26:37.190Z,64.56
2016-06-12T10:27:37.178Z,64.07
2016-06-12T10:28:37.165Z,64.17
2016-06-12T10:29:37.153Z,64.37
2016-06-12T10:30:41.452Z,64.17
2016-06-12T10:31:37.128Z,64.27
2016-06-12T10:32:37.116Z,63.01
2016-06-12T10:33:37.103Z,62.95
2016-06-12T10:34:37.105Z,62.36
2016-06-12T10:35:37.078Z,62.26
2016-06-12T10:36:37.065Z,61.68
2016-06-12T10:37:37.053Z,61.04
2016-06-12T10:38:37.056Z,60.84
2016-06-12T10:39:37.027Z,60
2016-06-12T10:40:37.015Z,60.19
2016-06-12T10:41:37.018Z,61.16
2016-06-12T10:42:36.989Z,60.48
2016-06-12T10:43:36.977Z,60.58
2016-06-12T10:44:36.980Z,61.55
2016-06-12T10:45:36.967Z,61.52
2016-06-12T10:46:36.970Z,60.97
2016-06-12T10:47:36.942Z,62.01
2016-06-12T10:48:36.930Z,61.25
2016-06-12T10:49:36.918Z,61.35
2016-06-12T10:50:36.920Z,60.58
2016-06-12T10:51:36.892Z,60.68
2016-06-12T10:52:36.880Z,60.31
2016-06-12T10:53:36.882Z,59.83
2016-06-12T10:54:36.870Z,59.08
2016-06-12T10:55:36.858Z,59.57
2016-06-12T10:56:36.845Z,59.25
2016-06-12T10:57:36.848Z,58.98
2016-06-12T10:58:36.821Z,60.12
2016-06-12T10:59:36.807Z,61.16
2016-06-12T11:00:36.810Z,59.51
2016-06-12T11:01:36.797Z,58.11
2016-06-12T11:02:36.786Z,58.01
2016-06-12T11:03:36.773Z,59.41
2016-06-12T11:04:36.760Z,57.98
2016-06-12T11:05:36.748Z,59.18
2016-06-12T11:06:36.735Z,58.59
2016-06-12T11:07:37.081Z,58.76
2016-06-12T11:08:36.804Z,58.11
2016-06-12T11:09:36.713Z,59.05
2016-06-12T11:10:36.700Z,57.01
2016-06-12T11:11:36.688Z,56.36
2016-06-12T11:12:36.675Z,56.16
2016-06-12T11:13:36.663Z,55.22
2016-06-12T11:14:36.651Z,54.44
2016-06-12T11:15:36.638Z,54.38
2016-06-12T11:16:36.626Z,55.13
2016-06-12T11:17:36.629Z,54.05
2016-06-12T11:18:36.599Z,53.69
2016-06-12T11:19:36.588Z,53.2
2016-06-12T11:20:36.591Z,52.84
2016-06-12T11:21:36.578Z,52.19
2016-06-12T11:22:36.706Z,51.34
2016-06-12T11:23:36.397Z,50.85
2016-06-12T11:24:36.556Z,51.24
2016-06-12T11:25:36.543Z,51.14
2016-06-12T11:26:36.531Z,50.16
2016-06-12T11:27:36.518Z,49.95
2016-06-12T11:28:36.505Z,49.27
2016-06-12T11:29:36.494Z,49.78
2016-06-12T11:30:36.480Z,50.07
2016-06-12T11:31:36.483Z,49.29
2016-06-12T11:32:36.472Z,49.1
2016-06-12T11:33:36.459Z,49.68
2016-06-12T11:34:36.446Z,49.68
2016-06-12T11:35:36.434Z,48.44
2016-06-12T11:36:36.437Z,48.05
2016-06-12T11:37:36.706Z,46.9
2016-06-12T11:38:36.272Z,47.29
2016-06-12T11:39:36.415Z,48.34
2016-06-12T11:40:36.403Z,49.22
2016-06-12T11:41:36.405Z,49.22
2016-06-12T11:42:36.236Z,48.8
2016-06-12T11:43:36.395Z,48.22
2016-06-12T11:44:36.226Z,46.02
2016-06-12T11:45:36.387Z,45.09
2016-06-12T11:46:36.374Z,43.65
2016-06-12T11:47:36.377Z,44.16
2016-06-12T11:48:36.380Z,44.8
2016-06-12T11:49:36.367Z,44.14
2016-06-12T11:50:36.370Z,44.21
2016-06-12T11:51:36.358Z,43.48
2016-06-12T11:52:36.220Z,43.2
2016-06-12T11:53:36.365Z,42.79
2016-06-12T11:54:36.367Z,42.74
2016-06-12T11:55:36.371Z,42.15
2016-06-12T11:56:36.374Z,41.96
2016-06-12T11:57:36.360Z,41.99
2016-06-12T11:58:36.363Z,41.78
2016-06-12T11:59:36.351Z,41.78
2016-06-12T12:00:36.354Z,42.07
2016-06-12T12:01:36.357Z,43.91
2016-06-12T12:02:36.345Z,41.03
2016-06-12T12:03:36.363Z,40.33
2016-06-12T12:04:36.366Z,39.47
2016-06-12T12:05:36.369Z,40.33
2016-06-12T12:06:36.357Z,40.31
2016-06-12T12:07:36.891Z,38.67
2016-06-12T12:08:36.378Z,38.02
2016-06-12T12:09:36.366Z,38.53
2016-06-12T12:10:36.214Z,38.28
2016-06-12T12:11:36.387Z,39.27
2016-06-12T12:12:36.359Z,39.35
2016-06-12T12:13:36.363Z,40.11
2016-06-12T12:14:36.366Z,39.43
2016-06-12T12:15:36.369Z,38.08
2016-06-12T12:16:36.373Z,38.2
2016-06-12T12:17:36.375Z,37.61
2016-06-12T12:18:36.378Z,36.82
2016-06-12T12:19:36.367Z,38.21
2016-06-12T12:20:36.370Z,37.21
2016-06-12T12:21:36.373Z,36.25
2016-06-12T12:22:36.813Z,36.16
2016-06-12T12:23:36.222Z,37.76
2016-06-12T12:24:36.381Z,38.08
2016-06-12T12:25:36.385Z,37.67
2016-06-12T12:26:36.388Z,38.29
2016-06-12T12:27:36.374Z,38.55
2016-06-12T12:28:36.394Z,36.63
2016-06-12T12:29:36.397Z,35.78
2016-06-12T12:30:36.400Z,36.49
2016-06-12T12:31:36.388Z,34.81
2016-06-12T12:32:36.406Z,34.87
2016-06-12T12:33:36.394Z,34.44
2016-06-12T12:34:36.413Z,34.36
2016-06-12T12:35:36.399Z,33
2016-06-12T12:36:36.402Z,32.64
2016-06-12T12:37:36.264Z,34.23
2016-06-12T12:38:36.877Z,34.46
2016-06-12T12:39:36.412Z,35.24
2016-06-12T12:40:36.415Z,34.64
2016-06-12T12:41:36.448Z,34.64
2016-06-12T12:42:36.421Z,36.49
2016-06-12T12:43:36.424Z,34.42
2016-06-12T12:44:36.428Z,34.75
2016-06-12T12:45:36.430Z,35.24
2016-06-12T12:46:36.433Z,34.15
2016-06-12T12:47:36.280Z,33.79
2016-06-12T12:48:36.439Z,34.39
2016-06-12T12:49:36.443Z,33.61
2016-06-12T12:50:36.446Z,32.17
2016-06-12T12:51:36.449Z,32.1
2016-06-12T12:52:36.452Z,30.35
2016-06-12T12:53:36.439Z,31.34
2016-06-12T12:54:36.442Z,31.6
2016-06-12T12:55:36.461Z,33.56